sensor_id;sensor_type;location;lat;lon;timestamp;temperature;humidity
15959;DHT22;8078;47.822;9.402;2023-08-12T00:02:26;19.70;1.00
15959;DHT22;8078;47.822;9.402;2023-08-12T00:05:12;19.60;1.00
15959;DHT22;8078;47.822;9.402;2023-08-12T00:07:58;19.50;1.00
15959;DHT22;8078;47.822;9.402;2023-08-12T00:10:44;19.50;1.00
15959;DHT22;8078;47.822;9.402;2023-08-12T00:13:30;19.50;1.00
15959;DHT22;8078;47.822;9.402;2023-08-12T00:16:16;19.40;1.00
15959;DHT22;8078;47.822;9.402;2023-08-12T00:19:02;19.50;1.00
15959;DHT22;8078;47.822;9.402;2023-08-12T00:21:48;19.40;1.00
15959;DHT22;8078;47.822;9.402;2023-08-12T00:24:34;19.40;1.00
15959;DHT22;8078;47.822;9.402;2023-08-12T00:27:20;19.30;1.00
15959;DHT22;8078;47.822;9.402;2023-08-12T00:30:06;19.30;1.00
15959;DHT22;8078;47.822;9.402;2023-08-12T00:32:52;19.20;3.50
15959;DHT22;8078;47.822;9.402;2023-08-12T00:35:38;19.10;99.90
15959;DHT22;8078;47.822;9.402;2023-08-12T00:38:23;19.00;99.90
15959;DHT22;8078;47.822;9.402;2023-08-12T00:41:09;19.00;99.90
15959;DHT22;8078;47.822;9.402;2023-08-12T00:43:56;19.00;99.90
15959;DHT22;8078;47.822;9.402;2023-08-12T00:46:42;19.00;99.90
15959;DHT22;8078;47.822;9.402;2023-08-12T00:49:29;19.10;99.90
15959;DHT22;8078;47.822;9.402;2023-08-12T00:52:17;19.00;99.90
15959;DHT22;8078;47.822;9.402;2023-08-12T00:55:04;19.00;99.90
15959;DHT22;8078;47.822;9.402;2023-08-12T00:57:50;19.00;99.90
15959;DHT22;8078;47.822;9.402;2023-08-12T01:00:36;19.10;99.90
15959;DHT22;8078;47.822;9.402;2023-08-12T01:03:23;19.00;99.90
15959;DHT22;8078;47.822;9.402;2023-08-12T01:06:09;19.00;99.90
15959;DHT22;8078;47.822;9.402;2023-08-12T01:08:55;19.00;99.90
15959;DHT22;8078;47.822;9.402;2023-08-12T01:11:55;18.90;99.90
15959;DHT22;8078;47.822;9.402;2023-08-12T01:14:54;18.90;99.90
15959;DHT22;8078;47.822;9.402;2023-08-12T01:17:43;18.90;99.90
15959;DHT22;8078;47.822;9.402;2023-08-12T01:20:29;18.90;99.90
15959;DHT22;8078;47.822;9.402;2023-08-12T01:23:16;18.80;99.90
15959;DHT22;8078;47.822;9.402;2023-08-12T01:26:02;18.80;99.90
15959;DHT22;8078;47.822;9.402;2023-08-12T01:28:48;18.80;99.90
15959;DHT22;8078;47.822;9.402;2023-08-12T01:31:45;18.90;99.90
15959;DHT22;8078;47.822;9.402;2023-08-12T01:34:44;19.00;99.90
15959;DHT22;8078;47.822;9.402;2023-08-12T01:37:32;19.10;99.90
15959;DHT22;8078;47.822;9.402;2023-08-12T01:40:20;19.10;99.90
15959;DHT22;8078;47.822;9.402;2023-08-12T01:43:05;19.10;99.90
15959;DHT22;8078;47.822;9.402;2023-08-12T01:45:53;19.40;99.90
15959;DHT22;8078;47.822;9.402;2023-08-12T01:48:39;20.10;99.90
15959;DHT22;8078;47.822;9.402;2023-08-12T01:51:26;20.50;99.90
15959;DHT22;8078;47.822;9.402;2023-08-12T01:54:11;20.40;99.90
15959;DHT22;8078;47.822;9.402;2023-08-12T01:56:57;20.80;1.00
15959;DHT22;8078;47.822;9.402;2023-08-12T01:59:43;21.00;1.00
15959;DHT22;8078;47.822;9.402;2023-08-12T02:02:29;21.30;1.00
15959;DHT22;8078;47.822;9.402;2023-08-12T02:05:15;21.40;1.00
15959;DHT22;8078;47.822;9.402;2023-08-12T02:08:01;21.60;1.00
15959;DHT22;8078;47.822;9.402;2023-08-12T02:10:47;21.80;1.00
15959;DHT22;8078;47.822;9.402;2023-08-12T02:13:33;21.80;1.00
15959;DHT22;8078;47.822;9.402;2023-08-12T02:16:19;21.90;1.00
15959;DHT22;8078;47.822;9.402;2023-08-12T02:19:05;21.60;1.00
15959;DHT22;8078;47.822;9.402;2023-08-12T02:21:50;21.50;1.00
15959;DHT22;8078;47.822;9.402;2023-08-12T02:24:36;21.40;1.00
15959;DHT22;8078;47.822;9.402;2023-08-12T02:27:22;21.20;1.00
15959;DHT22;8078;47.822;9.402;2023-08-12T02:30:08;21.20;1.00
15959;DHT22;8078;47.822;9.402;2023-08-12T02:32:54;21.20;1.00
15959;DHT22;8078;47.822;9.402;2023-08-12T02:35:40;21.20;1.00
15959;DHT22;8078;47.822;9.402;2023-08-12T02:38:26;21.10;1.00
15959;DHT22;8078;47.822;9.402;2023-08-12T02:41:12;21.20;1.00
15959;DHT22;8078;47.822;9.402;2023-08-12T02:43:58;21.10;1.00
15959;DHT22;8078;47.822;9.402;2023-08-12T02:46:44;21.10;1.00
15959;DHT22;8078;47.822;9.402;2023-08-12T02:49:30;21.20;1.00
15959;DHT22;8078;47.822;9.402;2023-08-12T02:52:15;21.10;1.00
15959;DHT22;8078;47.822;9.402;2023-08-12T02:55:01;21.10;1.00
15959;DHT22;8078;47.822;9.402;2023-08-12T02:57:47;21.20;1.00
15959;DHT22;8078;47.822;9.402;2023-08-12T03:00:33;21.10;1.00
15959;DHT22;8078;47.822;9.402;2023-08-12T03:03:19;21.10;1.00
15959;DHT22;8078;47.822;9.402;2023-08-12T03:06:05;21.20;1.00
15959;DHT22;8078;47.822;9.402;2023-08-12T03:08:51;21.30;1.00
15959;DHT22;8078;47.822;9.402;2023-08-12T03:11:37;21.20;1.00
15959;DHT22;8078;47.822;9.402;2023-08-12T03:14:23;21.00;1.00
15959;DHT22;8078;47.822;9.402;2023-08-12T03:17:09;20.90;1.00
15959;DHT22;8078;47.822;9.402;2023-08-12T03:19:54;20.90;1.00
15959;DHT22;8078;47.822;9.402;2023-08-12T03:22:42;20.90;1.00
15959;DHT22;8078;47.822;9.402;2023-08-12T03:25:28;20.90;1.00
15959;DHT22;8078;47.822;9.402;2023-08-12T03:28:14;20.80;1.00
15959;DHT22;8078;47.822;9.402;2023-08-12T03:30:59;20.90;1.00
15959;DHT22;8078;47.822;9.402;2023-08-12T03:33:45;20.90;1.00
15959;DHT22;8078;47.822;9.402;2023-08-12T03:36:31;21.00;1.00
15959;DHT22;8078;47.822;9.402;2023-08-12T03:39:17;21.10;1.00
15959;DHT22;8078;47.822;9.402;2023-08-12T03:42:03;21.00;1.00
15959;DHT22;8078;47.822;9.402;2023-08-12T03:44:49;21.00;1.00
15959;DHT22;8078;47.822;9.402;2023-08-12T03:47:35;21.00;1.00
15959;DHT22;8078;47.822;9.402;2023-08-12T03:50:20;21.00;1.00
15959;DHT22;8078;47.822;9.402;2023-08-12T03:53:06;21.00;1.00
15959;DHT22;8078;47.822;9.402;2023-08-12T03:55:54;21.10;1.00
15959;DHT22;8078;47.822;9.402;2023-08-12T03:58:40;21.10;1.00
15959;DHT22;8078;47.822;9.402;2023-08-12T04:01:26;21.20;1.00
15959;DHT22;8078;47.822;9.402;2023-08-12T04:04:12;21.30;1.00
15959;DHT22;8078;47.822;9.402;2023-08-12T04:06:58;21.50;1.00
15959;DHT22;8078;47.822;9.402;2023-08-12T04:09:44;21.50;1.00
15959;DHT22;8078;47.822;9.402;2023-08-12T04:12:30;21.40;1.00
15959;DHT22;8078;47.822;9.402;2023-08-12T04:15:16;21.40;1.00
15959;DHT22;8078;47.822;9.402;2023-08-12T04:18:02;21.30;1.00
15959;DHT22;8078;47.822;9.402;2023-08-12T04:20:49;21.40;1.00
15959;DHT22;8078;47.822;9.402;2023-08-12T04:23:35;21.40;1.00
15959;DHT22;8078;47.822;9.402;2023-08-12T04:26:21;21.60;1.00
15959;DHT22;8078;47.822;9.402;2023-08-12T04:29:07;21.50;1.00
15959;DHT22;8078;47.822;9.402;2023-08-12T04:31:53;21.60;1.00
15959;DHT22;8078;47.822;9.402;2023-08-12T04:34:39;21.60;1.00
15959;DHT22;8078;47.822;9.402;2023-08-12T04:37:25;21.60;1.00
15959;DHT22;8078;47.822;9.402;2023-08-12T04:40:11;21.50;4.70
15959;DHT22;8078;47.822;9.402;2023-08-12T04:42:59;21.40;1.00
15959;DHT22;8078;47.822;9.402;2023-08-12T04:45:48;21.40;3.00
15959;DHT22;8078;47.822;9.402;2023-08-12T04:48:34;21.30;3.30
15959;DHT22;8078;47.822;9.402;2023-08-12T04:51:20;21.30;1.00
15959;DHT22;8078;47.822;9.402;2023-08-12T04:54:06;21.20;5.40
15959;DHT22;8078;47.822;9.402;2023-08-12T04:56:52;21.20;1.00
15959;DHT22;8078;47.822;9.402;2023-08-12T04:59:38;21.40;1.00
15959;DHT22;8078;47.822;9.402;2023-08-12T05:02:24;21.30;1.00
15959;DHT22;8078;47.822;9.402;2023-08-12T05:05:10;21.10;1.00
15959;DHT22;8078;47.822;9.402;2023-08-12T05:07:56;21.10;1.00
15959;DHT22;8078;47.822;9.402;2023-08-12T05:10:42;21.00;1.00
15959;DHT22;8078;47.822;9.402;2023-08-12T05:13:28;20.90;1.00
15959;DHT22;8078;47.822;9.402;2023-08-12T05:16:15;20.90;1.00
15959;DHT22;8078;47.822;9.402;2023-08-12T05:19:00;20.90;1.00
15959;DHT22;8078;47.822;9.402;2023-08-12T05:21:46;20.90;19.00
15959;DHT22;8078;47.822;9.402;2023-08-12T05:24:32;21.00;17.10
15959;DHT22;8078;47.822;9.402;2023-08-12T05:27:18;21.10;57.40
15959;DHT22;8078;47.822;9.402;2023-08-12T05:30:04;21.20;46.30
15959;DHT22;8078;47.822;9.402;2023-08-12T05:32:50;21.30;67.40
15959;DHT22;8078;47.822;9.402;2023-08-12T05:35:36;21.40;83.30
15959;DHT22;8078;47.822;9.402;2023-08-12T05:38:22;21.30;98.20
15959;DHT22;8078;47.822;9.402;2023-08-12T05:41:08;21.20;47.60
15959;DHT22;8078;47.822;9.402;2023-08-12T05:43:54;21.10;93.70
15959;DHT22;8078;47.822;9.402;2023-08-12T05:46:40;21.00;73.10
15959;DHT22;8078;47.822;9.402;2023-08-12T05:49:26;20.90;99.90
15959;DHT22;8078;47.822;9.402;2023-08-12T05:52:12;20.80;99.90
15959;DHT22;8078;47.822;9.402;2023-08-12T05:54:58;20.70;99.90
15959;DHT22;8078;47.822;9.402;2023-08-12T05:57:43;20.60;99.90
15959;DHT22;8078;47.822;9.402;2023-08-12T06:00:29;20.60;99.90
15959;DHT22;8078;47.822;9.402;2023-08-12T06:03:15;20.50;99.90
15959;DHT22;8078;47.822;9.402;2023-08-12T06:06:02;20.30;99.90
15959;DHT22;8078;47.822;9.402;2023-08-12T06:08:48;20.20;99.90
15959;DHT22;8078;47.822;9.402;2023-08-12T06:11:34;20.20;99.90
15959;DHT22;8078;47.822;9.402;2023-08-12T06:14:20;20.30;99.90
15959;DHT22;8078;47.822;9.402;2023-08-12T06:17:06;20.30;99.90
15959;DHT22;8078;47.822;9.402;2023-08-12T06:19:52;20.40;99.90
15959;DHT22;8078;47.822;9.402;2023-08-12T06:22:38;20.30;99.90
15959;DHT22;8078;47.822;9.402;2023-08-12T06:25:23;20.50;99.90
15959;DHT22;8078;47.822;9.402;2023-08-12T06:28:09;20.70;99.90
15959;DHT22;8078;47.822;9.402;2023-08-12T06:30:55;20.90;99.90
15959;DHT22;8078;47.822;9.402;2023-08-12T06:33:41;21.20;99.90
15959;DHT22;8078;47.822;9.402;2023-08-12T06:36:27;21.30;99.90
15959;DHT22;8078;47.822;9.402;2023-08-12T06:39:13;21.60;99.90
15959;DHT22;8078;47.822;9.402;2023-08-12T06:41:59;21.80;99.90
15959;DHT22;8078;47.822;9.402;2023-08-12T06:44:45;21.90;99.90
15959;DHT22;8078;47.822;9.402;2023-08-12T06:47:31;22.00;99.90
15959;DHT22;8078;47.822;9.402;2023-08-12T06:50:17;22.20;99.90
15959;DHT22;8078;47.822;9.402;2023-08-12T06:53:03;22.20;99.90
15959;DHT22;8078;47.822;9.402;2023-08-12T06:55:49;21.80;99.90
15959;DHT22;8078;47.822;9.402;2023-08-12T06:58:34;21.90;99.90
15959;DHT22;8078;47.822;9.402;2023-08-12T07:01:20;22.10;99.90
15959;DHT22;8078;47.822;9.402;2023-08-12T07:04:06;22.20;99.90
15959;DHT22;8078;47.822;9.402;2023-08-12T07:06:52;22.20;99.90
15959;DHT22;8078;47.822;9.402;2023-08-12T07:09:38;22.20;99.90
15959;DHT22;8078;47.822;9.402;2023-08-12T07:12:24;21.70;99.90
15959;DHT22;8078;47.822;9.402;2023-08-12T07:15:10;21.60;99.90
15959;DHT22;8078;47.822;9.402;2023-08-12T07:17:56;21.30;99.90
15959;DHT22;8078;47.822;9.402;2023-08-12T07:20:43;21.10;99.90
15959;DHT22;8078;47.822;9.402;2023-08-12T07:23:29;20.90;99.90
15959;DHT22;8078;47.822;9.402;2023-08-12T07:26:15;20.80;99.90
15959;DHT22;8078;47.822;9.402;2023-08-12T07:29:01;20.90;99.90
15959;DHT22;8078;47.822;9.402;2023-08-12T07:31:47;21.00;99.90
15959;DHT22;8078;47.822;9.402;2023-08-12T07:34:33;21.40;99.90
15959;DHT22;8078;47.822;9.402;2023-08-12T07:37:18;21.60;99.90
15959;DHT22;8078;47.822;9.402;2023-08-12T07:40:05;21.70;99.90
15959;DHT22;8078;47.822;9.402;2023-08-12T07:42:51;21.70;99.90
15959;DHT22;8078;47.822;9.402;2023-08-12T07:45:37;21.60;99.90
15959;DHT22;8078;47.822;9.402;2023-08-12T07:48:23;21.60;99.90
15959;DHT22;8078;47.822;9.402;2023-08-12T07:51:09;21.80;99.90
15959;DHT22;8078;47.822;9.402;2023-08-12T07:53:56;21.90;99.90
15959;DHT22;8078;47.822;9.402;2023-08-12T07:56:42;22.00;99.90
15959;DHT22;8078;47.822;9.402;2023-08-12T07:59:27;21.90;99.90
15959;DHT22;8078;47.822;9.402;2023-08-12T08:02:13;22.10;99.90
15959;DHT22;8078;47.822;9.402;2023-08-12T08:04:59;22.50;99.90
15959;DHT22;8078;47.822;9.402;2023-08-12T08:07:45;22.60;99.90
15959;DHT22;8078;47.822;9.402;2023-08-12T08:10:31;22.60;99.90
15959;DHT22;8078;47.822;9.402;2023-08-12T08:13:17;22.70;99.90
15959;DHT22;8078;47.822;9.402;2023-08-12T08:16:03;23.10;99.90
15959;DHT22;8078;47.822;9.402;2023-08-12T08:18:49;23.10;99.90
15959;DHT22;8078;47.822;9.402;2023-08-12T08:21:35;22.80;99.90
15959;DHT22;8078;47.822;9.402;2023-08-12T08:24:21;22.90;99.90
15959;DHT22;8078;47.822;9.402;2023-08-12T08:27:07;22.90;99.90
15959;DHT22;8078;47.822;9.402;2023-08-12T08:29:53;22.80;99.90
15959;DHT22;8078;47.822;9.402;2023-08-12T08:32:39;22.50;99.90
15959;DHT22;8078;47.822;9.402;2023-08-12T08:35:25;22.80;99.90
15959;DHT22;8078;47.822;9.402;2023-08-12T08:38:11;22.90;99.90
15959;DHT22;8078;47.822;9.402;2023-08-12T08:40:58;22.90;99.90
15959;DHT22;8078;47.822;9.402;2023-08-12T08:43:46;23.00;99.90
15959;DHT22;8078;47.822;9.402;2023-08-12T08:46:33;22.80;99.90
15959;DHT22;8078;47.822;9.402;2023-08-12T08:49:20;22.70;99.90
15959;DHT22;8078;47.822;9.402;2023-08-12T08:52:07;23.20;99.90
15959;DHT22;8078;47.822;9.402;2023-08-12T08:54:53;22.90;99.90
15959;DHT22;8078;47.822;9.402;2023-08-12T08:57:39;22.90;99.90
15959;DHT22;8078;47.822;9.402;2023-08-12T09:00:28;22.90;99.90
15959;DHT22;8078;47.822;9.402;2023-08-12T09:03:15;22.60;99.90
15959;DHT22;8078;47.822;9.402;2023-08-12T09:06:01;22.60;99.90
15959;DHT22;8078;47.822;9.402;2023-08-12T09:08:53;22.80;99.90
15959;DHT22;8078;47.822;9.402;2023-08-12T09:11:39;22.90;99.90
15959;DHT22;8078;47.822;9.402;2023-08-12T09:14:26;23.30;99.90
15959;DHT22;8078;47.822;9.402;2023-08-12T09:17:12;23.70;99.90
15959;DHT22;8078;47.822;9.402;2023-08-12T09:19:57;23.80;99.90
15959;DHT22;8078;47.822;9.402;2023-08-12T09:22:43;24.20;99.90
15959;DHT22;8078;47.822;9.402;2023-08-12T09:25:30;24.20;99.90
15959;DHT22;8078;47.822;9.402;2023-08-12T09:28:16;24.40;99.90
15959;DHT22;8078;47.822;9.402;2023-08-12T09:31:02;24.20;99.90
15959;DHT22;8078;47.822;9.402;2023-08-12T09:33:48;24.80;99.90
15959;DHT22;8078;47.822;9.402;2023-08-12T09:36:34;24.60;99.90
15959;DHT22;8078;47.822;9.402;2023-08-12T09:39:20;24.50;99.90
15959;DHT22;8078;47.822;9.402;2023-08-12T09:42:07;24.00;99.90
15959;DHT22;8078;47.822;9.402;2023-08-12T09:44:52;24.10;99.90
15959;DHT22;8078;47.822;9.402;2023-08-12T09:47:38;24.00;99.90
15959;DHT22;8078;47.822;9.402;2023-08-12T09:50:28;24.00;99.90
15959;DHT22;8078;47.822;9.402;2023-08-12T09:53:15;24.00;99.90
15959;DHT22;8078;47.822;9.402;2023-08-12T09:56:07;24.40;99.90
15959;DHT22;8078;47.822;9.402;2023-08-12T09:58:56;24.50;99.90
15959;DHT22;8078;47.822;9.402;2023-08-12T10:01:43;24.90;99.90
15959;DHT22;8078;47.822;9.402;2023-08-12T10:04:39;24.40;99.90
15959;DHT22;8078;47.822;9.402;2023-08-12T10:07:27;24.30;99.90
15959;DHT22;8078;47.822;9.402;2023-08-12T10:10:14;24.70;99.90
15959;DHT22;8078;47.822;9.402;2023-08-12T10:13:01;24.60;99.90
15959;DHT22;8078;47.822;9.402;2023-08-12T10:15:48;24.10;99.90
15959;DHT22;8078;47.822;9.402;2023-08-12T10:18:35;23.80;99.90
15959;DHT22;8078;47.822;9.402;2023-08-12T10:21:22;23.70;99.90
15959;DHT22;8078;47.822;9.402;2023-08-12T10:24:10;24.30;99.90
15959;DHT22;8078;47.822;9.402;2023-08-12T10:26:57;24.40;99.90
15959;DHT22;8078;47.822;9.402;2023-08-12T10:29:43;24.90;99.90
15959;DHT22;8078;47.822;9.402;2023-08-12T10:32:30;24.90;99.90
15959;DHT22;8078;47.822;9.402;2023-08-12T10:35:16;24.00;99.90
15959;DHT22;8078;47.822;9.402;2023-08-12T10:38:05;23.90;99.90
15959;DHT22;8078;47.822;9.402;2023-08-12T10:41:15;23.90;99.90
15959;DHT22;8078;47.822;9.402;2023-08-12T10:44:03;23.40;99.90
15959;DHT22;8078;47.822;9.402;2023-08-12T10:46:51;23.40;99.90
15959;DHT22;8078;47.822;9.402;2023-08-12T10:49:47;23.50;99.90
15959;DHT22;8078;47.822;9.402;2023-08-12T10:52:34;23.80;99.90
15959;DHT22;8078;47.822;9.402;2023-08-12T10:55:27;24.50;99.90
15959;DHT22;8078;47.822;9.402;2023-08-12T10:58:28;24.60;99.90
15959;DHT22;8078;47.822;9.402;2023-08-12T11:01:17;23.70;99.90
15959;DHT22;8078;47.822;9.402;2023-08-12T11:04:17;23.00;99.90
15959;DHT22;8078;47.822;9.402;2023-08-12T11:07:17;22.60;99.90
15959;DHT22;8078;47.822;9.402;2023-08-12T11:12:58;22.30;99.90
15959;DHT22;8078;47.822;9.402;2023-08-12T11:15:44;22.30;99.90
15959;DHT22;8078;47.822;9.402;2023-08-12T11:18:35;22.20;99.90
15959;DHT22;8078;47.822;9.402;2023-08-12T11:21:21;22.20;99.90
15959;DHT22;8078;47.822;9.402;2023-08-12T11:24:07;22.20;99.90
15959;DHT22;8078;47.822;9.402;2023-08-12T11:26:53;22.10;99.90
15959;DHT22;8078;47.822;9.402;2023-08-12T11:29:39;22.10;99.90
15959;DHT22;8078;47.822;9.402;2023-08-12T11:32:25;22.10;99.90
15959;DHT22;8078;47.822;9.402;2023-08-12T11:35:12;22.00;99.90
15959;DHT22;8078;47.822;9.402;2023-08-12T11:37:59;21.90;99.90
15959;DHT22;8078;47.822;9.402;2023-08-12T11:40:45;22.00;99.90
15959;DHT22;8078;47.822;9.402;2023-08-12T11:43:34;22.00;99.90
15959;DHT22;8078;47.822;9.402;2023-08-12T11:46:20;22.00;99.90
15959;DHT22;8078;47.822;9.402;2023-08-12T11:49:06;22.00;99.90
15959;DHT22;8078;47.822;9.402;2023-08-12T11:51:52;22.10;99.90
15959;DHT22;8078;47.822;9.402;2023-08-12T11:54:39;22.30;99.90
15959;DHT22;8078;47.822;9.402;2023-08-12T11:57:26;22.50;99.90
15959;DHT22;8078;47.822;9.402;2023-08-12T12:00:13;22.80;99.90
15959;DHT22;8078;47.822;9.402;2023-08-12T12:02:59;22.70;99.90
15959;DHT22;8078;47.822;9.402;2023-08-12T12:05:46;22.40;99.90
15959;DHT22;8078;47.822;9.402;2023-08-12T12:08:33;22.30;99.90
15959;DHT22;8078;47.822;9.402;2023-08-12T12:11:19;22.30;99.90
15959;DHT22;8078;47.822;9.402;2023-08-12T12:14:06;22.40;99.90
15959;DHT22;8078;47.822;9.402;2023-08-12T12:16:52;22.40;99.90
15959;DHT22;8078;47.822;9.402;2023-08-12T12:19:40;22.30;99.90
15959;DHT22;8078;47.822;9.402;2023-08-12T12:22:32;22.40;99.90
15959;DHT22;8078;47.822;9.402;2023-08-12T12:25:18;22.40;99.90
15959;DHT22;8078;47.822;9.402;2023-08-12T12:28:04;22.60;99.90
15959;DHT22;8078;47.822;9.402;2023-08-12T12:30:50;22.60;99.90
15959;DHT22;8078;47.822;9.402;2023-08-12T12:33:36;22.50;99.90
15959;DHT22;8078;47.822;9.402;2023-08-12T12:36:22;22.50;99.90
15959;DHT22;8078;47.822;9.402;2023-08-12T12:39:08;22.40;99.90
15959;DHT22;8078;47.822;9.402;2023-08-12T12:41:54;22.30;99.90
15959;DHT22;8078;47.822;9.402;2023-08-12T12:44:40;22.20;99.90
15959;DHT22;8078;47.822;9.402;2023-08-12T12:47:31;22.40;99.90
15959;DHT22;8078;47.822;9.402;2023-08-12T12:50:17;22.40;99.90
15959;DHT22;8078;47.822;9.402;2023-08-12T12:53:03;22.50;99.90
15959;DHT22;8078;47.822;9.402;2023-08-12T12:55:49;22.50;99.90
15959;DHT22;8078;47.822;9.402;2023-08-12T12:58:36;22.30;99.90
15959;DHT22;8078;47.822;9.402;2023-08-12T13:01:23;22.20;99.90
15959;DHT22;8078;47.822;9.402;2023-08-12T13:04:09;21.90;99.90
15959;DHT22;8078;47.822;9.402;2023-08-12T13:06:55;21.90;99.90
15959;DHT22;8078;47.822;9.402;2023-08-12T13:09:41;21.80;99.90
15959;DHT22;8078;47.822;9.402;2023-08-12T13:12:27;21.80;99.90
15959;DHT22;8078;47.822;9.402;2023-08-12T13:15:12;21.90;99.90
15959;DHT22;8078;47.822;9.402;2023-08-12T13:17:58;22.00;99.90
15959;DHT22;8078;47.822;9.402;2023-08-12T13:20:44;22.20;99.90
15959;DHT22;8078;47.822;9.402;2023-08-12T13:23:30;22.30;99.90
15959;DHT22;8078;47.822;9.402;2023-08-12T13:26:16;22.90;99.90
15959;DHT22;8078;47.822;9.402;2023-08-12T13:29:02;23.00;99.90
15959;DHT22;8078;47.822;9.402;2023-08-12T13:31:52;23.10;99.90
15959;DHT22;8078;47.822;9.402;2023-08-12T13:34:38;23.60;99.90
15959;DHT22;8078;47.822;9.402;2023-08-12T13:37:24;23.60;99.90
15959;DHT22;8078;47.822;9.402;2023-08-12T13:40:10;23.90;99.90
15959;DHT22;8078;47.822;9.402;2023-08-12T13:42:57;23.80;99.90
15959;DHT22;8078;47.822;9.402;2023-08-12T13:45:43;23.90;99.90
15959;DHT22;8078;47.822;9.402;2023-08-12T13:48:29;24.20;99.90
15959;DHT22;8078;47.822;9.402;2023-08-12T13:51:15;24.20;99.90
15959;DHT22;8078;47.822;9.402;2023-08-12T13:54:01;24.40;99.90
15959;DHT22;8078;47.822;9.402;2023-08-12T13:56:47;24.60;99.90
15959;DHT22;8078;47.822;9.402;2023-08-12T13:59:32;24.50;99.90
15959;DHT22;8078;47.822;9.402;2023-08-12T14:02:18;24.40;99.90
15959;DHT22;8078;47.822;9.402;2023-08-12T14:05:05;24.50;99.90
15959;DHT22;8078;47.822;9.402;2023-08-12T14:07:51;24.40;99.90
15959;DHT22;8078;47.822;9.402;2023-08-12T14:10:37;24.60;99.90
15959;DHT22;8078;47.822;9.402;2023-08-12T14:13:22;24.70;96.30
15959;DHT22;8078;47.822;9.402;2023-08-12T14:16:08;25.00;98.60
15959;DHT22;8078;47.822;9.402;2023-08-12T14:18:54;24.70;94.00
15959;DHT22;8078;47.822;9.402;2023-08-12T14:21:40;24.40;90.00
15959;DHT22;8078;47.822;9.402;2023-08-12T14:24:26;24.10;99.90
15959;DHT22;8078;47.822;9.402;2023-08-12T14:27:12;24.20;83.50
15959;DHT22;8078;47.822;9.402;2023-08-12T14:29:58;24.20;99.90
15959;DHT22;8078;47.822;9.402;2023-08-12T14:32:44;24.70;99.90
15959;DHT22;8078;47.822;9.402;2023-08-12T14:35:30;24.80;99.90
15959;DHT22;8078;47.822;9.402;2023-08-12T14:38:15;24.20;99.90
15959;DHT22;8078;47.822;9.402;2023-08-12T14:41:01;24.30;99.90
15959;DHT22;8078;47.822;9.402;2023-08-12T14:43:47;24.50;99.90
15959;DHT22;8078;47.822;9.402;2023-08-12T14:46:33;24.30;99.90
15959;DHT22;8078;47.822;9.402;2023-08-12T14:49:19;24.50;99.90
15959;DHT22;8078;47.822;9.402;2023-08-12T14:52:05;25.00;99.90
15959;DHT22;8078;47.822;9.402;2023-08-12T14:54:50;25.50;99.90
15959;DHT22;8078;47.822;9.402;2023-08-12T14:57:36;24.90;99.90
15959;DHT22;8078;47.822;9.402;2023-08-12T15:00:22;25.10;99.90
15959;DHT22;8078;47.822;9.402;2023-08-12T15:03:08;25.10;99.90
15959;DHT22;8078;47.822;9.402;2023-08-12T15:06:00;24.60;99.90
15959;DHT22;8078;47.822;9.402;2023-08-12T15:08:46;24.60;99.90
15959;DHT22;8078;47.822;9.402;2023-08-12T15:11:33;24.90;99.90
15959;DHT22;8078;47.822;9.402;2023-08-12T15:14:18;25.00;99.90
15959;DHT22;8078;47.822;9.402;2023-08-12T15:17:04;25.00;99.90
15959;DHT22;8078;47.822;9.402;2023-08-12T15:19:50;24.70;99.90
15959;DHT22;8078;47.822;9.402;2023-08-12T15:22:36;24.40;99.90
15959;DHT22;8078;47.822;9.402;2023-08-12T15:25:22;24.40;99.90
15959;DHT22;8078;47.822;9.402;2023-08-12T15:28:08;24.60;99.90
15959;DHT22;8078;47.822;9.402;2023-08-12T15:30:54;24.90;99.90
15959;DHT22;8078;47.822;9.402;2023-08-12T15:33:40;24.30;99.90
15959;DHT22;8078;47.822;9.402;2023-08-12T15:36:27;24.20;99.90
15959;DHT22;8078;47.822;9.402;2023-08-12T15:39:13;24.20;99.90
15959;DHT22;8078;47.822;9.402;2023-08-12T15:41:58;24.00;99.90
15959;DHT22;8078;47.822;9.402;2023-08-12T15:44:44;23.70;99.90
15959;DHT22;8078;47.822;9.402;2023-08-12T15:47:30;23.60;99.90
15959;DHT22;8078;47.822;9.402;2023-08-12T15:50:18;23.50;99.90
15959;DHT22;8078;47.822;9.402;2023-08-12T15:53:04;23.50;99.90
15959;DHT22;8078;47.822;9.402;2023-08-12T15:55:50;23.30;99.90
15959;DHT22;8078;47.822;9.402;2023-08-12T15:58:36;23.20;99.90
15959;DHT22;8078;47.822;9.402;2023-08-12T16:01:22;23.20;99.90
15959;DHT22;8078;47.822;9.402;2023-08-12T16:04:08;23.20;99.90
15959;DHT22;8078;47.822;9.402;2023-08-12T16:06:53;23.20;99.90
15959;DHT22;8078;47.822;9.402;2023-08-12T16:09:39;23.20;99.90
15959;DHT22;8078;47.822;9.402;2023-08-12T16:12:25;23.10;99.90
15959;DHT22;8078;47.822;9.402;2023-08-12T16:15:11;23.10;99.90
15959;DHT22;8078;47.822;9.402;2023-08-12T16:17:57;23.10;99.90
15959;DHT22;8078;47.822;9.402;2023-08-12T16:20:43;23.10;99.90
15959;DHT22;8078;47.822;9.402;2023-08-12T16:23:29;23.00;99.90
15959;DHT22;8078;47.822;9.402;2023-08-12T16:26:17;23.00;99.90
15959;DHT22;8078;47.822;9.402;2023-08-12T16:29:03;23.00;99.90
15959;DHT22;8078;47.822;9.402;2023-08-12T16:31:49;22.90;99.90
15959;DHT22;8078;47.822;9.402;2023-08-12T16:34:35;22.90;99.90
15959;DHT22;8078;47.822;9.402;2023-08-12T16:37:21;22.80;99.90
15959;DHT22;8078;47.822;9.402;2023-08-12T16:40:07;22.80;99.90
15959;DHT22;8078;47.822;9.402;2023-08-12T16:42:53;22.80;99.90
15959;DHT22;8078;47.822;9.402;2023-08-12T16:45:39;22.70;99.90
15959;DHT22;8078;47.822;9.402;2023-08-12T16:48:25;22.70;99.90
15959;DHT22;8078;47.822;9.402;2023-08-12T16:51:11;22.70;99.90
15959;DHT22;8078;47.822;9.402;2023-08-12T16:53:58;22.70;99.90
15959;DHT22;8078;47.822;9.402;2023-08-12T16:56:44;22.70;99.90
15959;DHT22;8078;47.822;9.402;2023-08-12T16:59:29;22.70;99.90
15959;DHT22;8078;47.822;9.402;2023-08-12T17:02:15;22.80;99.90
15959;DHT22;8078;47.822;9.402;2023-08-12T17:05:01;22.90;99.90
15959;DHT22;8078;47.822;9.402;2023-08-12T17:07:47;22.90;99.90
15959;DHT22;8078;47.822;9.402;2023-08-12T17:10:37;23.00;99.90
15959;DHT22;8078;47.822;9.402;2023-08-12T17:13:23;23.00;99.90
15959;DHT22;8078;47.822;9.402;2023-08-12T17:16:09;23.00;99.90
15959;DHT22;8078;47.822;9.402;2023-08-12T17:18:55;23.00;99.90
15959;DHT22;8078;47.822;9.402;2023-08-12T17:21:41;23.00;99.90
15959;DHT22;8078;47.822;9.402;2023-08-12T17:24:26;23.00;99.90
15959;DHT22;8078;47.822;9.402;2023-08-12T17:27:12;22.90;99.90
15959;DHT22;8078;47.822;9.402;2023-08-12T17:29:58;22.90;99.90
15959;DHT22;8078;47.822;9.402;2023-08-12T17:32:44;22.80;99.90
15959;DHT22;8078;47.822;9.402;2023-08-12T17:35:30;22.80;99.90
15959;DHT22;8078;47.822;9.402;2023-08-12T17:38:16;22.80;99.90
15959;DHT22;8078;47.822;9.402;2023-08-12T17:41:02;22.80;99.90
15959;DHT22;8078;47.822;9.402;2023-08-12T17:43:48;22.70;99.90
15959;DHT22;8078;47.822;9.402;2023-08-12T17:46:34;22.70;99.90
15959;DHT22;8078;47.822;9.402;2023-08-12T17:49:20;22.60;99.90
15959;DHT22;8078;47.822;9.402;2023-08-12T17:52:06;22.60;99.90
15959;DHT22;8078;47.822;9.402;2023-08-12T17:54:52;22.50;99.90
15959;DHT22;8078;47.822;9.402;2023-08-12T17:57:38;22.50;99.90